SCCI 221000Z 00000KT 9999 -RA SCT030 OVC080 02/02 Q0984 NOSIG